Time;durP1;ratioP1;P1;durP2;ratioP2;P2;SDS_P1;SDS_P2;PMS_P1;PMS_P2;Temp;Humidity;BMP_temperature;BMP_pressure;BME280_temperature;BME280_humidity;BME280_pressure;Samples;Min_cycle;Max_cycle;Signal;HPM_P1;HPM_P2
2022/01/12 00:00:46;;;;;;;;;;;;;;;20.86;44.05;101032.06;2107740;28;19919;-65
2022/01/12 00:01:47;;;;;;;;;;;;;;;20.84;44.04;101029.44;2107551;28;19912;-65
2022/01/12 00:02:47;;;;;;;;;;;;;;;20.86;43.99;101030.16;2107752;28;19916;-65
2022/01/12 00:03:48;;;;;;;;;;;;;;;20.87;43.91;101031.91;2107760;28;19912;-65
2022/01/12 00:04:48;;;;;;;;;;;;;;;20.87;43.79;101031.91;2098419;28;19912;-66
2022/01/12 00:05:48;;;;;;;;;;;;;;;20.87;43.92;101031.91;2098510;28;19912;-65
2022/01/12 00:06:49;;;;;;;;;;;;;;;20.87;43.97;101036.50;2107468;28;19920;-66
2022/01/12 00:07:51;;;;;;;;;;;;;;;20.87;43.78;101042.00;2107563;28;19952;-66
2022/01/12 00:08:51;;;;;;;;;;;;;;;20.87;43.85;101036.50;2107539;28;20350;-66
2022/01/12 00:09:52;;;;;;;;;;;;;;;20.86;43.71;101035.66;2107612;28;19912;-65
2022/01/12 00:10:52;;;;;;;;;;;;;;;20.86;43.82;101041.13;2107509;28;20304;-66
2022/01/12 00:11:52;;;;;;;;;;;;;;;20.85;43.78;101031.19;2107471;28;19919;-66
2022/01/12 00:12:53;;;;;;;;;;;;;;;20.87;43.68;101036.50;2107595;28;19916;-65
2022/01/12 00:13:53;;;;;;;;;;;;;;;20.87;43.72;101040.16;2098400;28;19913;-65
2022/01/12 00:14:53;;;;;;;;;;;;;;;20.86;43.70;101024.69;2098547;28;19912;-65
2022/01/12 00:15:54;;;;;;;;;;;;;;;20.84;43.75;101026.69;2107554;28;20405;-65
2022/01/12 00:16:59;;;;;;;;;;;;;;;20.85;43.84;101025.72;2107213;28;19924;-65
2022/01/12 00:17:59;;;;;;;;;;;;;;;20.85;43.60;101022.97;2107645;28;20255;-65
2022/01/12 00:19:00;;;;;;;;;;;;;;;20.84;43.81;101029.44;2107440;28;19969;-66
2022/01/12 00:20:00;;;;;;;;;;;;;;;20.84;43.72;101026.69;2107437;28;19912;-65
2022/01/12 00:21:01;;;;;;;;;;;;;;;20.86;43.63;101029.31;2107439;28;19912;-66
2022/01/12 00:22:02;;;;;;;;;;;;;;;20.85;43.65;101028.44;2107265;28;19955;-65
2022/01/12 00:23:02;;;;;;;;;;;;;;;20.85;43.89;101028.44;2107487;28;19912;-65
2022/01/12 00:24:02;;;;;;;;;;;;;;;20.83;43.82;101030.47;2107763;28;20252;-65
2022/01/12 00:25:22;;;;;;;;;;;;;;;20.83;43.79;101030.47;2107678;28;19922;-65
2022/01/12 00:26:40;;;;;;;;;;;;;;;20.82;43.98;101028.69;2107296;28;19912;-64
2022/01/12 00:33:13;;;;;;;;;;;;;;;20.79;43.81;101039.94;2107797;28;19912;-65
2022/01/12 00:34:13;;;;;;;;;;;;;;;20.79;43.88;101039.94;2107391;28;20264;-65
2022/01/12 00:35:13;;;;;;;;;;;;;;;20.78;43.78;101038.22;2107270;28;19938;-65
2022/01/12 00:36:14;;;;;;;;;;;;;;;20.74;43.93;101036.75;2107167;28;20255;-67
2022/01/12 00:37:14;;;;;;;;;;;;;;;20.69;44.11;101041.78;2098254;28;20466;-66
2022/01/12 00:38:15;;;;;;;;;;;;;;;20.47;44.06;101035.44;2087289;28;20444;-66
2022/01/12 00:39:16;;;;;;;;;;;;;;;20.28;44.56;101036.19;2081093;28;19912;-67
2022/01/12 00:40:16;;;;;;;;;;;;;;;20.17;44.99;101044.50;2076520;28;20391;-66
2022/01/12 00:41:17;;;;;;;;;;;;;;;20.05;45.43;101040.09;2073744;28;20394;-67
2022/01/12 00:42:22;;;;;;;;;;;;;;;19.96;45.63;101041.75;2081951;28;20007;-66
2022/01/12 00:43:25;;;;;;;;;;;;;;;19.88;45.67;101027.88;2088961;28;20775;-66
2022/01/12 00:44:33;;;;;;;;;;;;;;;19.84;45.77;101032.75;2085802;28;19920;-66
2022/01/12 00:45:34;;;;;;;;;;;;;;;19.80;45.83;101035.88;2086523;28;19909;-67
2022/01/12 00:46:35;;;;;;;;;;;;;;;19.76;45.97;101034.41;2083863;28;19920;-66
2022/01/12 00:47:35;;;;;;;;;;;;;;;19.74;46.12;101034.53;2084874;28;19916;-66
2022/01/12 00:48:36;;;;;;;;;;;;;;;19.73;46.12;101040.16;2085166;28;19969;-66
2022/01/12 00:49:36;;;;;;;;;;;;;;;19.70;46.21;101039.41;2077523;28;19948;-66
2022/01/12 00:50:37;;;;;;;;;;;;;;;19.68;46.29;101041.41;2084771;28;19926;-66
2022/01/12 00:51:39;;;;;;;;;;;;;;;19.65;46.32;101038.91;2085842;28;19916;-66
2022/01/12 00:52:39;;;;;;;;;;;;;;;19.65;46.33;101049.84;2085110;28;19920;-66
2022/01/12 00:53:40;;;;;;;;;;;;;;;19.64;46.29;101048.09;2083239;28;19915;-66
2022/01/12 00:54:40;;;;;;;;;;;;;;;19.62;46.40;101055.59;2085984;28;19909;-66
2022/01/12 00:55:41;;;;;;;;;;;;;;;19.60;46.43;101049.38;2084913;28;19932;-66
2022/01/12 00:56:41;;;;;;;;;;;;;;;19.60;46.44;101046.63;2082542;28;19924;-66
2022/01/12 00:57:42;;;;;;;;;;;;;;;19.59;46.54;101052.22;2089365;28;19916;-67
2022/01/12 00:58:43;;;;;;;;;;;;;;;19.57;46.47;101056.94;2084989;28;19916;-66
2022/01/12 00:59:43;;;;;;;;;;;;;;;19.55;46.62;101048.88;2081102;28;19989;-66
2022/01/12 01:00:43;;;;;;;;;;;;;;;19.53;46.62;101048.16;2075308;28;20042;-66
2022/01/12 01:01:44;;;;;;;;;;;;;;;19.53;46.61;101050.88;2077059;28;19966;-66
2022/01/12 01:02:44;;;;;;;;;;;;;;;19.52;46.68;101048.25;2076521;28;19928;-66
2022/01/12 01:03:44;;;;;;;;;;;;;;;19.51;46.71;101046.53;2085600;28;19981;-67
2022/01/12 01:04:45;;;;;;;;;;;;;;;19.52;46.72;101045.53;2085078;28;19920;-66
2022/01/12 01:05:45;;;;;;;;;;;;;;;19.51;46.75;101043.81;2084266;28;19967;-66
2022/01/12 01:06:45;;;;;;;;;;;;;;;19.49;46.87;101044.78;2084161;28;19916;-66
2022/01/12 01:07:46;;;;;;;;;;;;;;;19.48;46.87;101042.19;2085514;28;20011;-66
2022/01/12 01:08:48;;;;;;;;;;;;;;;19.49;46.85;101049.41;2087659;28;20379;-65
2022/01/12 01:10:00;;;;;;;;;;;;;;;19.47;46.81;101043.19;2081596;28;19974;-65
2022/01/12 01:11:01;;;;;;;;;;;;;;;19.45;46.80;101047.91;2083744;28;19917;-65
2022/01/12 01:12:01;;;;;;;;;;;;;;;19.46;46.87;101044.19;2083946;28;20302;-65
2022/01/12 01:13:02;;;;;;;;;;;;;;;19.45;47.04;101053.38;2085797;28;19920;-65
2022/01/12 01:14:12;;;;;;;;;;;;;;;19.44;46.85;101052.50;2081393;28;20821;-65
2022/01/12 01:15:15;;;;;;;;;;;;;;;19.46;46.91;101061.47;2084753;28;20019;-65
2022/01/12 01:16:22;;;;;;;;;;;;;;;19.44;46.84;101060.72;2076473;28;19921;-65
2022/01/12 01:25:32;;;;;;;;;;;;;;;19.41;47.05;101066.44;2086761;28;20003;-65
2022/01/12 01:26:32;;;;;;;;;;;;;;;19.40;47.08;101066.56;2082218;28;19908;-65
2022/01/12 01:27:33;;;;;;;;;;;;;;;19.38;47.00;101058.50;2081748;28;19917;-65
2022/01/12 01:28:33;;;;;;;;;;;;;;;19.39;46.99;101070.31;2089628;28;20034;-65
2022/01/12 01:29:34;;;;;;;;;;;;;;;19.39;46.98;101075.78;2082274;28;20422;-65
2022/01/12 01:30:36;;;;;;;;;;;;;;;19.39;47.05;101059.38;2082604;28;20039;-65
2022/01/12 01:31:37;;;;;;;;;;;;;;;19.39;47.17;101064.84;2090122;28;20542;-65
2022/01/12 01:32:38;;;;;;;;;;;;;;;19.41;47.03;101057.38;2082149;28;19923;-65
2022/01/12 01:33:38;;;;;;;;;;;;;;;19.41;47.01;101058.25;2082638;28;20079;-66
2022/01/12 01:34:44;;;;;;;;;;;;;;;19.40;46.93;101056.53;2086369;28;19912;-65
2022/01/12 01:35:50;;;;;;;;;;;;;;;19.41;47.04;101055.50;2084741;28;19916;-65
2022/01/12 01:36:51;;;;;;;;;;;;;;;19.42;46.97;101061.84;2082635;28;19924;-65
2022/01/12 01:37:51;;;;;;;;;;;;;;;19.42;47.05;101053.63;2085647;28;19919;-65
2022/01/12 01:38:51;;;;;;;;;;;;;;;19.43;46.98;101058.13;2083721;28;19924;-66
2022/01/12 01:39:52;;;;;;;;;;;;;;;19.43;46.82;101055.41;2081066;28;19917;-65
2022/01/12 01:40:52;;;;;;;;;;;;;;;19.44;46.98;101057.13;2082836;28;19967;-65
2022/01/12 01:41:56;;;;;;;;;;;;;;;19.45;46.94;101056.09;2081723;28;19962;-65
2022/01/12 01:53:21;;;;;;;;;;;;;;;19.52;46.67;101060.06;2084910;28;20612;-65
2022/01/12 01:54:21;;;;;;;;;;;;;;;19.54;46.69;101063.53;2080650;28;20023;-65
2022/01/12 01:55:22;;;;;;;;;;;;;;;19.54;46.65;101066.28;2083339;28;19916;-65
2022/01/12 01:56:22;;;;;;;;;;;;;;;19.55;46.59;101068.03;2078608;28;19925;-65
2022/01/12 01:57:24;;;;;;;;;;;;;;;19.56;46.66;101072.50;2085019;28;20573;-65
2022/01/12 01:58:24;;;;;;;;;;;;;;;19.58;46.63;101072.38;2085233;28;19920;-66
2022/01/12 01:59:24;;;;;;;;;;;;;;;19.58;46.66;101070.50;2085825;28;19965;-65
2022/01/12 02:00:26;;;;;;;;;;;;;;;19.60;46.57;101073.97;2073412;28;19923;-65
2022/01/12 02:01:27;;;;;;;;;;;;;;;19.61;46.53;101075.72;2077481;28;19916;-65
2022/01/12 02:02:27;;;;;;;;;;;;;;;19.62;46.48;101066.53;2081950;28;19917;-66
2022/01/12 02:03:29;;;;;;;;;;;;;;;19.64;46.52;101075.44;2084059;28;19939;-65
2022/01/12 02:04:29;;;;;;;;;;;;;;;19.64;46.45;101069.97;2080441;28;19917;-66
2022/01/12 02:05:31;;;;;;;;;;;;;;;19.64;46.39;101069.97;2086827;28;20423;-66
2022/01/12 02:06:31;;;;;;;;;;;;;;;19.65;46.41;101074.47;2077428;28;20567;-66
2022/01/12 02:07:34;;;;;;;;;;;;;;;19.65;46.37;101066.25;2079070;28;19913;-65
2022/01/12 02:08:37;;;;;;;;;;;;;;;19.67;46.21;101068.84;2088321;28;19931;-65
2022/01/12 02:09:38;;;;;;;;;;;;;;;19.69;46.43;101072.34;2082801;28;19982;-65
2022/01/12 02:10:38;;;;;;;;;;;;;;;19.70;46.38;101074.09;2084861;28;20769;-65
2022/01/12 02:11:39;;;;;;;;;;;;;;;19.70;46.37;101065.91;2082654;28;19917;-65
2022/01/12 02:12:39;;;;;;;;;;;;;;;19.72;46.35;101071.22;2085010;28;19917;-65
2022/01/12 02:13:39;;;;;;;;;;;;;;;19.72;46.36;101073.97;2083851;28;19962;-65
2022/01/12 02:14:40;;;;;;;;;;;;;;;19.72;46.29;101065.75;2085817;28;19928;-65
2022/01/12 02:15:44;;;;;;;;;;;;;;;19.74;46.32;101069.22;2086799;28;19916;-65
2022/01/12 02:16:56;;;;;;;;;;;;;;;19.74;46.24;101072.81;2083672;28;19964;-65
2022/01/12 02:18:15;;;;;;;;;;;;;;;19.76;46.22;101069.97;2079750;28;19917;-65
2022/01/12 02:19:40;;;;;;;;;;;;;;;19.76;46.21;101073.56;2076306;28;19916;-65
2022/01/12 02:36:32;;;;;;;;;;;;;;;19.85;45.98;101061.84;2085008;28;19913;-65
2022/01/12 02:40:12;;;;;;;;;;;;;;;19.88;45.83;101058.84;2080114;28;20011;-66
2022/01/12 02:41:14;;;;;;;;;;;;;;;19.87;45.87;101057.13;2078393;28;19966;-65
2022/01/12 02:42:17;;;;;;;;;;;;;;;19.89;45.86;101057.84;2081656;28;20393;-66
2022/01/12 02:43:37;;;;;;;;;;;;;;;19.89;45.80;101056.97;2082018;28;19974;-66
2022/01/12 02:54:38;;;;;;;;;;;;;;;19.89;45.96;101054.22;2084558;28;19925;-65
2022/01/12 02:55:38;;;;;;;;;;;;;;;19.91;45.83;101063.19;2083970;28;19917;-65
2022/01/12 02:56:38;;;;;;;;;;;;;;;19.91;45.93;101060.44;2082831;28;20336;-65
2022/01/12 02:57:38;;;;;;;;;;;;;;;19.90;45.98;101062.31;2084420;28;19917;-65
2022/01/12 02:58:40;;;;;;;;;;;;;;;19.90;45.98;101061.44;2080348;28;19924;-65
2022/01/12 03:00:35;;;;;;;;;;;;;;;19.90;45.99;101069.66;2082863;28;19923;-65
2022/01/12 03:02:32;;;;;;;;;;;;;;;19.92;45.93;101064.94;2085947;28;19916;-65
2022/01/12 03:03:36;;;;;;;;;;;;;;;19.90;45.93;101058.72;2081936;28;19916;-65
2022/01/12 03:04:46;;;;;;;;;;;;;;;19.90;45.93;101056.84;2081047;28;19924;-65
2022/01/12 03:05:55;;;;;;;;;;;;;;;19.90;46.05;101064.19;2085499;28;19916;-65
2022/01/12 03:07:04;;;;;;;;;;;;;;;19.89;45.86;101054.22;2086578;28;19916;-65
2022/01/12 03:08:12;;;;;;;;;;;;;;;19.91;45.96;101054.97;2083306;28;19917;-65
2022/01/12 03:09:13;;;;;;;;;;;;;;;19.90;45.97;101056.84;2081068;28;19915;-66
2022/01/12 03:10:13;;;;;;;;;;;;;;;19.90;45.97;101058.72;2083170;28;19917;-65
2022/01/12 03:11:15;;;;;;;;;;;;;;;19.89;46.10;101055.13;2078532;28;20621;-65
2022/01/12 03:12:16;;;;;;;;;;;;;;;19.89;45.98;101055.13;2083833;28;19988;-65
2022/01/12 03:13:17;;;;;;;;;;;;;;;19.90;45.95;101058.72;2083776;28;19919;-65
2022/01/12 03:14:18;;;;;;;;;;;;;;;19.89;46.04;101054.22;2085303;28;19916;-66
2022/01/12 03:15:18;;;;;;;;;;;;;;;19.88;46.07;101056.09;2085558;28;20406;-65
2022/01/12 03:16:22;;;;;;;;;;;;;;;19.88;46.01;101055.25;2080047;28;20518;-66
2022/01/12 03:17:22;;;;;;;;;;;;;;;19.87;46.06;101054.38;2086323;28;19923;-65
2022/01/12 03:18:23;;;;;;;;;;;;;;;19.87;46.06;101059.00;2079996;28;19920;-65
2022/01/12 03:19:23;;;;;;;;;;;;;;;19.86;46.07;101057.22;2083603;28;19939;-66
2022/01/12 03:20:23;;;;;;;;;;;;;;;19.86;46.12;101062.72;2084975;28;20445;-66
2022/01/12 03:21:25;;;;;;;;;;;;;;;19.85;46.10;101056.38;2082835;28;19917;-66
2022/01/12 03:22:25;;;;;;;;;;;;;;;19.86;46.07;101062.72;2087232;28;19909;-66
2022/01/12 03:23:26;;;;;;;;;;;;;;;19.86;46.12;101059.97;2082246;28;20714;-66
2022/01/12 03:24:26;;;;;;;;;;;;;;;19.84;46.09;101056.50;2084057;28;19970;-66
2022/01/12 03:25:27;;;;;;;;;;;;;;;19.84;46.22;101054.66;2082342;28;19922;-66
2022/01/12 03:26:29;;;;;;;;;;;;;;;19.83;46.15;101055.63;2082486;28;19916;-67
2022/01/12 03:27:29;;;;;;;;;;;;;;;19.82;46.19;101048.44;2083160;28;20394;-66
2022/01/12 03:28:29;;;;;;;;;;;;;;;19.83;46.17;101052.03;2079717;28;19917;-66
2022/01/12 03:29:30;;;;;;;;;;;;;;;19.83;46.23;101061.09;2078179;28;19947;-66
2022/01/12 03:30:37;;;;;;;;;;;;;;;19.82;46.27;101059.38;2079934;28;19909;-66
2022/01/12 03:31:37;;;;;;;;;;;;;;;19.82;46.24;101055.75;2082915;28;19924;-66
2022/01/12 03:32:46;;;;;;;;;;;;;;;19.81;46.16;101054.88;2086038;28;19916;-66
2022/01/12 03:34:54;;;;;;;;;;;;;;;19.80;46.21;101053.16;2081598;28;20706;-66
2022/01/12 03:36:23;;;;;;;;;;;;;;;19.79;46.28;101048.69;2085493;28;20270;-66
2022/01/12 03:37:40;;;;;;;;;;;;;;;19.80;46.33;101052.31;2078282;28;20004;-65
2022/01/12 03:38:38;;;;;;;;;;;;;;;19.79;46.27;101050.56;2090940;28;19928;-66
2022/01/12 03:39:38;;;;;;;;;;;;;;;19.79;46.29;101053.28;2093717;28;19916;-66
2022/01/12 03:40:39;;;;;;;;;;;;;;;19.79;46.33;101056.03;2094040;28;20267;-66
2022/01/12 03:41:40;;;;;;;;;;;;;;;19.79;46.34;101047.81;2092983;28;19920;-66
2022/01/12 03:42:41;;;;;;;;;;;;;;;19.78;46.27;101048.81;2091115;28;19916;-66
2022/01/12 03:43:41;;;;;;;;;;;;;;;19.77;46.37;101052.53;2092545;28;19916;-66
2022/01/12 03:44:41;;;;;;;;;;;;;;;19.78;46.32;101054.28;2091005;28;19962;-66
2022/01/12 03:45:42;;;;;;;;;;;;;;;19.77;46.40;101052.53;2093801;28;19915;-66
2022/01/12 03:46:44;;;;;;;;;;;;;;;19.76;46.42;101050.81;2092131;28;19916;-66
2022/01/12 03:47:44;;;;;;;;;;;;;;;19.76;46.36;101050.81;2095505;28;19954;-66
2022/01/12 03:48:45;;;;;;;;;;;;;;;19.75;46.37;101043.63;2093807;28;19927;-66
2022/01/12 03:49:46;;;;;;;;;;;;;;;19.75;46.40;101049.97;2095014;28;19939;-66
2022/01/12 03:50:48;;;;;;;;;;;;;;;19.74;46.39;101058.28;2099846;28;20041;-66
2022/01/12 03:51:49;;;;;;;;;;;;;;;19.75;46.42;101054.56;2094754;28;19914;-66
2022/01/12 03:52:49;;;;;;;;;;;;;;;19.75;46.49;101065.50;2093169;28;19923;-66
2022/01/12 03:53:50;;;;;;;;;;;;;;;19.75;46.41;101060.03;2094676;28;19909;-66
2022/01/12 03:54:50;;;;;;;;;;;;;;;19.75;46.48;101057.31;2092102;28;20018;-66
2022/01/12 03:55:50;;;;;;;;;;;;;;;19.75;46.47;101062.78;2094866;28;19904;-66
2022/01/12 03:56:51;;;;;;;;;;;;;;;19.73;46.49;101062.91;2091252;28;19920;-66
2022/01/12 03:57:51;;;;;;;;;;;;;;;19.74;46.49;101063.75;2094649;28;19916;-66
2022/01/12 03:58:51;;;;;;;;;;;;;;;19.73;46.50;101062.03;2091677;28;20445;-66
2022/01/12 03:59:52;;;;;;;;;;;;;;;19.73;46.50;101067.50;2095143;28;19969;-66
2022/01/12 04:00:52;;;;;;;;;;;;;;;19.72;46.49;101061.16;2093172;28;19916;-65
2022/01/12 04:01:52;;;;;;;;;;;;;;;19.73;46.39;101062.03;2096239;28;19924;-66
2022/01/12 04:02:53;;;;;;;;;;;;;;;19.73;46.44;101062.03;2093124;28;19916;-65
2022/01/12 04:04:02;;;;;;;;;;;;;;;19.72;46.58;101060.28;2093770;28;19916;-66
2022/01/12 04:08:44;;;;;;;;;;;;;;;19.71;46.54;101064.88;2086617;28;19955;-66
2022/01/12 04:09:45;;;;;;;;;;;;;;;19.70;46.61;101069.50;2081039;28;19913;-66
2022/01/12 04:10:49;;;;;;;;;;;;;;;19.69;46.59;101067.75;2086736;28;19920;-66
2022/01/12 04:11:50;;;;;;;;;;;;;;;19.69;46.54;101067.75;2093605;28;19956;-66
2022/01/12 04:12:50;;;;;;;;;;;;;;;19.68;46.58;101066.03;2094393;28;19911;-66
2022/01/12 04:13:52;;;;;;;;;;;;;;;19.68;46.53;101060.53;2090940;28;20011;-66
2022/01/12 04:14:52;;;;;;;;;;;;;;;19.67;46.64;101069.75;2093611;28;19904;-66
2022/01/12 04:15:54;;;;;;;;;;;;;;;19.69;46.55;101075.09;2094530;28;20676;-66
2022/01/12 04:16:54;;;;;;;;;;;;;;;19.68;46.64;101074.22;2093678;28;19962;-66
2022/01/12 04:17:54;;;;;;;;;;;;;;;19.67;46.61;101080.72;2094610;28;19916;-66
2022/01/12 04:18:55;;;;;;;;;;;;;;;19.67;46.70;101080.72;2093105;28;19923;-66
2022/01/12 04:19:55;;;;;;;;;;;;;;;19.66;46.61;101073.44;2094634;28;19978;-66
2022/01/12 04:20:57;;;;;;;;;;;;;;;19.65;46.57;101069.00;2094270;28;19923;-66
2022/01/12 04:22:07;;;;;;;;;;;;;;;19.66;46.64;101078.06;2090260;28;19908;-66
2022/01/12 04:23:19;;;;;;;;;;;;;;;19.65;46.61;101077.19;2092308;28;19912;-66
2022/01/12 04:24:19;;;;;;;;;;;;;;;19.64;46.62;101075.44;2093838;28;20363;-66
2022/01/12 04:25:22;;;;;;;;;;;;;;;19.65;46.64;101079.06;2094320;28;20422;-66
2022/01/12 04:26:22;;;;;;;;;;;;;;;19.64;46.71;101075.44;2093415;28;19932;-66
2022/01/12 04:27:22;;;;;;;;;;;;;;;19.65;46.83;101081.81;2093642;28;19912;-66
2022/01/12 04:28:24;;;;;;;;;;;;;;;19.64;46.56;101077.31;2093131;28;19912;-66
2022/01/12 04:29:24;;;;;;;;;;;;;;;19.63;46.76;101079.19;2094140;28;20672;-66
2022/01/12 04:30:24;;;;;;;;;;;;;;;19.62;46.63;101074.72;2093654;28;19950;-66
2022/01/12 04:31:25;;;;;;;;;;;;;;;19.61;46.60;101081.19;2094225;28;20463;-66
2022/01/12 04:32:26;;;;;;;;;;;;;;;19.61;46.61;101075.72;2093529;28;19913;-66
2022/01/12 04:33:26;;;;;;;;;;;;;;;19.59;46.73;101077.69;2090485;28;19908;-66
2022/01/12 04:34:27;;;;;;;;;;;;;;;19.60;46.72;101079.47;2094473;28;20449;-66
2022/01/12 04:35:32;;;;;;;;;;;;;;;19.59;46.70;101083.16;2093347;28;19908;-67
2022/01/12 04:36:33;;;;;;;;;;;;;;;19.59;46.67;101083.16;2093102;28;19943;-66
2022/01/12 04:37:34;;;;;;;;;;;;;;;19.60;46.82;101084.03;2095733;28;19923;-66
2022/01/12 04:38:35;;;;;;;;;;;;;;;19.60;46.69;101090.41;2084418;28;19920;-66
2022/01/12 04:39:35;;;;;;;;;;;;;;;19.59;46.79;101083.16;2087231;28;20513;-66
2022/01/12 04:40:36;;;;;;;;;;;;;;;19.58;46.73;101084.19;2085299;28;19916;-65
2022/01/12 04:41:36;;;;;;;;;;;;;;;19.58;46.78;101088.78;2085818;28;20323;-65
2022/01/12 04:42:36;;;;;;;;;;;;;;;19.57;46.69;101097.97;2087690;28;19920;-66
2022/01/12 04:43:38;;;;;;;;;;;;;;;19.58;46.76;101094.25;2084190;28;19917;-66
2022/01/12 04:44:44;;;;;;;;;;;;;;;19.56;46.87;101099.84;2087323;28;20406;-65
2022/01/12 04:47:03;;;;;;;;;;;;;;;19.56;46.78;101110.78;2086021;28;20411;-66
2022/01/12 04:49:36;;;;;;;;;;;;;;;19.55;46.78;101092.66;2085830;28;19916;-66
2022/01/12 04:50:37;;;;;;;;;;;;;;;19.55;46.75;101098.13;2081751;28;20360;-66
2022/01/12 04:51:37;;;;;;;;;;;;;;;19.55;46.80;101099.97;2087036;28;19916;-66
2022/01/12 04:52:38;;;;;;;;;;;;;;;19.54;46.84;101096.38;2084615;28;19923;-66
2022/01/12 04:53:38;;;;;;;;;;;;;;;19.54;46.87;101099.09;2081884;28;20086;-66
2022/01/12 04:54:38;;;;;;;;;;;;;;;19.53;46.80;101100.09;2087156;28;19943;-65
2022/01/12 04:55:39;;;;;;;;;;;;;;;19.52;46.89;101098.34;2082352;28;19970;-66
2022/01/12 04:56:39;;;;;;;;;;;;;;;19.53;46.81;101093.78;2086806;28;20670;-65
2022/01/12 04:57:40;;;;;;;;;;;;;;;19.53;46.83;101097.38;2085128;28;20401;-66
2022/01/12 04:58:40;;;;;;;;;;;;;;;19.52;46.80;101103.81;2086643;28;20272;-65
2022/01/12 04:59:54;;;;;;;;;;;;;;;19.52;46.82;101100.22;2086372;28;19912;-66
2022/01/12 05:01:03;;;;;;;;;;;;;;;19.52;46.81;101101.09;2086309;28;19958;-66
2022/01/12 05:06:20;;;;;;;;;;;;;;;19.51;46.80;101101.25;2077274;28;19916;-65
2022/01/12 05:06:37;;;;;;;;;;;;;;;19.49;46.89;101087.69;2085955;28;20382;-66
2022/01/12 05:07:46;;;;;;;;;;;;;;;19.48;46.91;101096.91;2085668;28;19916;-66
2022/01/12 05:13:47;;;;;;;;;;;;;;;19.45;46.89;101094.38;2081782;28;19917;-66
2022/01/12 05:15:01;;;;;;;;;;;;;;;19.46;46.89;101098.88;2087044;28;19916;-66
2022/01/12 05:16:02;;;;;;;;;;;;;;;19.45;46.99;101102.59;2080221;28;19925;-66
2022/01/12 05:17:02;;;;;;;;;;;;;;;19.44;47.05;101104.47;2078093;28;19921;-66
2022/01/12 05:18:03;;;;;;;;;;;;;;;19.45;46.97;101108.06;2064483;28;19918;-66
2022/01/12 05:19:05;;;;;;;;;;;;;;;19.44;46.89;101100.88;2069452;28;19916;-66
2022/01/12 05:20:06;;;;;;;;;;;;;;;19.43;46.98;101100.00;2079990;28;19939;-66
2022/01/12 05:21:07;;;;;;;;;;;;;;;19.43;46.98;101104.63;2083787;28;19920;-66
2022/01/12 05:22:07;;;;;;;;;;;;;;;19.42;46.98;101101.00;2082909;28;19916;-66
2022/01/12 05:23:07;;;;;;;;;;;;;;;19.43;47.04;101104.63;2078043;28;19916;-66
2022/01/12 05:24:10;;;;;;;;;;;;;;;19.43;46.90;101104.63;2088440;28;19935;-65
2022/01/12 05:25:10;;;;;;;;;;;;;;;19.42;47.05;101102.84;2084580;28;19923;-66
2022/01/12 05:26:11;;;;;;;;;;;;;;;19.41;47.04;101101.13;2076673;28;19928;-66
2022/01/12 05:27:11;;;;;;;;;;;;;;;19.41;47.13;101106.59;2079937;28;19923;-66
2022/01/12 05:28:12;;;;;;;;;;;;;;;19.41;47.04;101106.59;2083993;28;19962;-66
2022/01/12 05:29:13;;;;;;;;;;;;;;;19.41;47.25;101106.59;2088259;28;19908;-66
2022/01/12 05:30:14;;;;;;;;;;;;;;;19.41;47.15;101106.59;2090138;28;20567;-66
2022/01/12 05:31:15;;;;;;;;;;;;;;;19.41;47.05;101106.59;2084926;28;19938;-66
2022/01/12 05:32:15;;;;;;;;;;;;;;;19.40;47.12;101110.31;2088660;28;19916;-66
2022/01/12 05:33:17;;;;;;;;;;;;;;;19.39;47.07;101108.59;2089785;28;19916;-66
2022/01/12 05:34:17;;;;;;;;;;;;;;;19.39;47.14;101108.59;2087303;28;19920;-66
2022/01/12 05:35:19;;;;;;;;;;;;;;;19.38;47.14;101109.59;2087503;28;19923;-66
2022/01/12 05:36:20;;;;;;;;;;;;;;;19.38;47.19;101112.34;2084739;28;19923;-66
2022/01/12 05:37:20;;;;;;;;;;;;;;;19.37;47.15;101110.56;2077975;28;20414;-66
2022/01/12 05:38:21;;;;;;;;;;;;;;;19.37;47.09;101116.03;2084868;28;20452;-66
2022/01/12 05:39:21;;;;;;;;;;;;;;;19.37;47.00;101113.31;2095168;28;20394;-66
2022/01/12 05:40:21;;;;;;;;;;;;;;;19.36;47.15;101115.19;2099354;28;19916;-66
2022/01/12 05:41:22;;;;;;;;;;;;;;;19.36;47.29;101119.78;2092753;28;19912;-66
2022/01/12 05:42:23;;;;;;;;;;;;;;;19.36;47.16;101117.06;2095940;28;19916;-66
2022/01/12 05:43:26;;;;;;;;;;;;;;;19.34;47.27;101117.16;2083458;28;19959;-66
2022/01/12 05:44:27;;;;;;;;;;;;;;;19.35;47.24;101118.03;2084170;28;20735;-65
2022/01/12 05:45:28;;;;;;;;;;;;;;;19.34;47.25;101116.31;2096517;28;20520;-66
2022/01/12 05:46:30;;;;;;;;;;;;;;;19.33;47.19;101118.19;2098230;28;19915;-66
2022/01/12 05:50:11;;;;;;;;;;;;;;;19.32;47.29;101130.09;2089664;28;19916;-66
2022/01/12 05:51:12;;;;;;;;;;;;;;;19.32;47.25;101119.16;2088874;28;20633;-66
2022/01/12 05:52:12;;;;;;;;;;;;;;;19.32;47.27;101123.75;2097170;28;19934;-66
2022/01/12 05:53:13;;;;;;;;;;;;;;;19.32;47.20;101129.22;2094759;28;19928;-66
2022/01/12 05:54:13;;;;;;;;;;;;;;;19.32;47.28;101134.69;2096168;28;19916;-66
2022/01/12 05:55:14;;;;;;;;;;;;;;;19.32;47.31;101134.69;2096862;28;19943;-66
2022/01/12 05:56:14;;;;;;;;;;;;;;;19.31;47.28;101139.31;2085035;28;19912;-66
2022/01/12 05:57:14;;;;;;;;;;;;;;;19.31;47.21;101135.72;2087599;28;20079;-66
2022/01/12 05:58:15;;;;;;;;;;;;;;;19.28;47.34;101134.97;2094264;28;19916;-67
2022/01/12 05:59:15;;;;;;;;;;;;;;;19.27;47.35;101130.47;2091804;28;20473;-66
2022/01/12 06:00:17;;;;;;;;;;;;;;;19.28;47.35;101134.97;2089732;28;19956;-66
2022/01/12 06:01:18;;;;;;;;;;;;;;;19.28;47.31;101128.63;2089014;28;19965;-66
2022/01/12 06:02:18;;;;;;;;;;;;;;;19.27;47.35;101133.19;2095490;28;19966;-66
2022/01/12 06:03:19;;;;;;;;;;;;;;;19.26;47.31;101136.94;2096221;28;19928;-66
2022/01/12 06:04:19;;;;;;;;;;;;;;;19.27;47.26;101132.34;2094844;28;19931;-66
2022/01/12 06:05:20;;;;;;;;;;;;;;;19.25;47.40;101135.19;2097006;28;19908;-66
2022/01/12 06:06:21;;;;;;;;;;;;;;;19.25;47.33;101135.19;2095524;28;19916;-66
2022/01/12 06:07:21;;;;;;;;;;;;;;;19.25;47.34;101135.19;2094949;28;19919;-66
2022/01/12 06:08:21;;;;;;;;;;;;;;;19.25;47.38;101137.06;2089345;28;19932;-66
2022/01/12 06:09:22;;;;;;;;;;;;;;;19.24;47.38;101143.53;2093726;28;19923;-66
2022/01/12 06:10:23;;;;;;;;;;;;;;;19.24;47.41;101138.94;2096848;28;19969;-66
2022/01/12 06:11:23;;;;;;;;;;;;;;;19.23;47.36;101142.66;2090198;28;20009;-66
2022/01/12 06:12:24;;;;;;;;;;;;;;;19.24;47.32;101143.53;2092443;28;20391;-66
2022/01/12 06:13:24;;;;;;;;;;;;;;;19.23;47.35;101148.13;2094971;28;19916;-66
2022/01/12 06:14:24;;;;;;;;;;;;;;;19.23;47.43;101147.25;2095769;28;20344;-66
2022/01/12 06:15:25;;;;;;;;;;;;;;;19.23;47.32;101155.44;2095663;28;19920;-66
2022/01/12 06:16:27;;;;;;;;;;;;;;;19.23;47.42;101155.44;2094848;28;20393;-65
2022/01/12 06:17:27;;;;;;;;;;;;;;;19.22;47.41;101162.78;2092071;28;19927;-66
2022/01/12 06:18:28;;;;;;;;;;;;;;;19.23;47.38;101159.06;2089949;28;19924;-66
2022/01/12 06:19:28;;;;;;;;;;;;;;;19.24;47.45;101170.88;2097148;28;19911;-65
2022/01/12 06:20:28;;;;;;;;;;;;;;;19.23;47.41;101161.81;2095914;28;19959;-65
2022/01/12 06:21:29;;;;;;;;;;;;;;;19.23;47.26;101158.19;2089067;28;20020;-65
2022/01/12 06:22:29;;;;;;;;;;;;;;;19.23;47.44;101153.59;2083331;28;19916;-66
2022/01/12 06:23:35;;;;;;;;;;;;;;;19.22;47.32;101154.56;2084877;28;19917;-65
2022/01/12 06:24:36;;;;;;;;;;;;;;;19.22;47.46;101151.84;2087878;28;19966;-65
2022/01/12 06:25:36;;;;;;;;;;;;;;;19.23;47.34;101152.72;2090904;28;19912;-66
2022/01/12 06:26:37;;;;;;;;;;;;;;;19.22;47.47;101160.03;2096161;28;19912;-66
2022/01/12 06:27:37;;;;;;;;;;;;;;;19.24;47.28;101160.78;2092472;28;20629;-65
2022/01/12 06:28:41;;;;;;;;;;;;;;;19.22;47.37;101157.31;2094626;28;19912;-65
2022/01/12 06:29:49;;;;;;;;;;;;;;;19.22;47.42;101162.78;2095672;28;19916;-66
2022/01/12 06:32:09;;;;;;;;;;;;;;;19.23;47.34;101161.81;2089030;28;19913;-65